Home > Products > Valid Products > TAF

000
FTUS43 KAPX 040838 AAA
TAFAPN
TAF AMD
KAPN 040838Z 0409/0506 04004KT 4SM -DZ BR BKN003 OVC090
     FM041000 05004KT P6SM SCT003 OVC050
      TEMPO 0410/0412 BKN003 OVC050
     FM041200 08006KT P6SM SCT035 BKN100
     FM041700 12011KT P6SM BKN120=



000
FTUS43 KAPX 040838 AAA
TAFAPN
TAF AMD
KAPN 040838Z 0409/0506 04004KT 4SM -DZ BR BKN003 OVC090
     FM041000 05004KT P6SM SCT003 OVC050
      TEMPO 0410/0412 BKN003 OVC050
     FM041200 08006KT P6SM SCT035 BKN100
     FM041700 12011KT P6SM BKN120=



000
FTUS43 KAPX 040836 AAA
TAFTVC
TAF AMD
KTVC 040836Z 0409/0506 04004KT P6SM OVC014
      TEMPO 0410/0412 SCT015 OVC040
     FM041200 08010KT P6SM OVC040
     FM041600 12010KT P6SM OVC035=



000
FTUS43 KAPX 040836 AAA
TAFTVC
TAF AMD
KTVC 040836Z 0409/0506 04004KT P6SM OVC014
      TEMPO 0410/0412 SCT015 OVC040
     FM041200 08010KT P6SM OVC040
     FM041600 12010KT P6SM OVC035=



000
FTUS43 KAPX 040543
TAFAPN
TAF
KAPN 040543Z 0406/0506 06006KT P6SM SCT080
     FM040800 07004KT 5SM -SHRA BR SCT025 OVC045
     FM041100 08006KT P6SM SCT035 BKN100
     FM041700 12011KT P6SM BKN120=



000
FTUS43 KAPX 040543
TAFTVC
TAF
KTVC 040543Z 0406/0506 08005KT P6SM BKN035 OVC050
     FM041300 08010KT P6SM OVC040
     FM041600 12010KT P6SM OVC035=



000
FTUS43 KAPX 040543
TAFPLN
TAF
KPLN 040543Z 0406/0506 34004KT 5SM BR SCT050 BKN250
     FM041000 06004KT P6SM BKN080
     FM041500 11010KT P6SM BKN150
     FM041800 10010KT P6SM SCT040=



000
FTUS43 KAPX 040543
TAFAPN
TAF
KAPN 040543Z 0406/0506 06006KT P6SM SCT080
     FM040800 07004KT 5SM -SHRA BR SCT025 OVC045
     FM041100 08006KT P6SM SCT035 BKN100
     FM041700 12011KT P6SM BKN120=



000
FTUS43 KAPX 040325 AAB
TAFPLN
TAF AMD
KPLN 040325Z 0403/0424 00000KT P6SM BKN003 BKN120
      TEMPO 0408/0412 3SM BR
     FM041200 10007KT P6SM -SHRA SCT010 OVC050
     FM041600 09008KT P6SM -SHRA OVC030=



000
FTUS43 KAPX 040214 AAA
TAFTVC
TAF AMD
KTVC 040214Z 0402/0424 04005KT P6SM SCT005 OVC014
      TEMPO 0402/0406 4SM -SHRA BR
     FM040600 00000KT 5SM BR OVC009
     FM040900 00000KT 3SM BR VCSH BKN012 OVC025
     FM041600 09005KT P6SM VCSH OVC025=



000
FTUS43 KAPX 040214 AAA
TAFTVC
TAF AMD
KTVC 040214Z 0402/0424 04005KT P6SM SCT005 OVC014
      TEMPO 0402/0406 4SM -SHRA BR
     FM040600 00000KT 5SM BR OVC009
     FM040900 00000KT 3SM BR VCSH BKN012 OVC025
     FM041600 09005KT P6SM VCSH OVC025=



000
FTUS43 KAPX 040055 CCA
TAFAPN
TAF COR
KAPN 040055Z 0400/0424 09004KT P6SM SCT050
     FM040300 00000KT 5SM BR SCT010 OVC100
     FM041000 08004KT P6SM -SHRA BKN006 OVC040
     FM041500 12009KT P6SM -SHRA SCT010 OVC050=



000
FTUS43 KAPX 040055 CCA
TAFAPN
TAF COR
KAPN 040055Z 0400/0424 09004KT P6SM SCT050
     FM040300 00000KT 5SM BR SCT010 OVC100
     FM041000 08004KT P6SM -SHRA BKN006 OVC040
     FM041500 12009KT P6SM -SHRA SCT010 OVC050=



000
FTUS43 KAPX 040052 AAA
TAFPLN
TAF AMD
KPLN 040052Z 0401/0424 06008KT P6SM SCT012
     FM040300 00000KT 5SM BR SCT120
     FM040600 00000KT 3/4SM BR SCT050
     FM041300 10007KT P6SM -SHRA BKN030=



000
FTUS43 KAPX 032320
TAFTVC
TAF
KTVC 032320Z 0400/0424 04005KT P6SM SCT005 OVC014
     FM040300 00000KT 5SM BR OVC009
     FM040900 00000KT 3SM BR VCSH BKN012 OVC025
     FM041600 09005KT P6SM VCSH OVC025=



000
FTUS43 KAPX 032320
TAFAPN
TAF
KAPN 032320Z 0400/0424 09004KT P6SM -SHRA BKN006 OVC050
     FM040500 00000KT 5SM BR SCT010 OVC100
     FM041000 08004KT P6SM -SHRA BKN006 OVC040
     FM041500 12009KT P6SM -SHRA SCT010 OVC050=



000
FTUS43 KAPX 032320
TAFPLN
TAF
KPLN 032320Z 0400/0424 06008KT P6SM OVC014
     FM040400 00000KT 5SM BR SCT012 BKN120
     FM041400 10007KT P6SM -SHRA BKN030=



000
FTUS43 KAPX 032157 AAA
TAFPLN
TAF AMD
KPLN 032157Z 0322/0418 06008KT P6SM VCSH OVC009
     FM040200 00000KT 5SM BR SCT010 BKN120
     FM041400 10007KT P6SM -SHRA BKN030=



000
FTUS43 KAPX 032149 AAB
TAFTVC
TAF AMD
KTVC 032149Z 0322/0418 04005KT P6SM -SHRA SCT005 OVC014
     FM040200 00000KT 6SM BR VCSH OVC009
     FM040800 00000KT 4SM -SHRA BR OVC012
     FM041600 09005KT P6SM VCSH OVC022=



000
FTUS43 KAPX 032134 AAB
TAFAPN
TAF AMD
KAPN 032134Z 0322/0418 09004KT P6SM -SHRA BKN006 OVC050
     FM040500 00000KT 5SM BR SCT010 OVC100
     FM041000 08004KT P6SM -SHRA BKN006 OVC040
     FM041500 12009KT P6SM -SHRA SCT010 OVC050=



000
FTUS43 KAPX 031818 AAA
TAFTVC
TAF AMD
KTVC 031818Z 0318/0418 07005KT 5SM -RA BR OVC022
      TEMPO 0318/0320 2SM RA BR BKN010
     FM040200 00000KT 6SM BR VCSH OVC022
     FM040800 00000KT 4SM BR OVC012
     FM041400 09005KT P6SM OVC022=



000
FTUS43 KAPX 031818 AAA
TAFTVC
TAF AMD
KTVC 031818Z 0318/0418 07005KT 5SM -RA BR OVC022
      TEMPO 0318/0320 2SM RA BR BKN010
     FM040200 00000KT 6SM BR VCSH OVC022
     FM040800 00000KT 4SM BR OVC012
     FM041400 09005KT P6SM OVC022=



000
FTUS43 KAPX 031737 AAA
TAFAPN
TAF AMD
KAPN 031737Z 0318/0418 VRB05KT 3SM RA BR BKN010 OVC025
     FM032000 09007KT P6SM VCSH FEW012 BKN040
     FM040100 08003KT 5SM BR BKN040
     FM040600 00000KT 5SM BR SCT050 BKN120
     FM041300 08004KT P6SM BKN040=



000
FTUS43 KAPX 031720
TAFPLN
TAF
KPLN 031720Z 0318/0418 10007KT P6SM VCSH SCT040 BKN120
     FM040100 00000KT 6SM BR VCSH SCT040 BKN120
     FM040400 00000KT 3SM BR BKN120
     FM041400 10007KT P6SM BKN050=



000
FTUS43 KAPX 031720
TAFAPN
TAF
KAPN 031720Z 0318/0418 06005KT 5SM -SHRA SCT010 OVC025
     FM032000 09007KT P6SM VCSH FEW012 BKN040
     FM040100 08003KT 5SM BR BKN040
     FM040600 00000KT 5SM BR SCT050 BKN120
     FM041300 08004KT P6SM BKN040=



000
FTUS43 KAPX 031720
TAFTVC
TAF
KTVC 031720Z 0318/0418 07005KT P6SM VCSH FEW009 OVC020
     FM040200 00000KT 6SM BR VCSH OVC022
     FM040800 00000KT 4SM BR OVC012
     FM041400 09005KT P6SM OVC022=



000
FTUS43 KAPX 031605 AAA
TAFAPN
TAF AMD
KAPN 031605Z 0316/0412 VRB05KT 5SM -SHRA OVC010
     FM031900 10007KT P6SM VCSH BKN040 BKN080
     FM040100 00000KT 5SM BR SCT040=



000
FTUS43 KAPX 031600 AAB
TAFTVC
TAF AMD
KTVC 031600Z 0316/0412 07005KT P6SM VCSH BKN035 BKN120
      TEMPO 0316/0318 FEW010 OVC020
     FM040000 VRB03KT P6SM VCSH SCT040 BKN080=



000
FTUS43 KAPX 031358 AAA
TAFPLN
TAF AMD
KPLN 031358Z 0314/0412 10007KT 6SM -SHRA BKN040 BKN080
     FM040100 00000KT 6SM BR VCSH SCT040 BKN120
     FM040400 00000KT 3SM BR BKN120=



000
FTUS43 KAPX 031355 AAA
TAFTVC
TAF AMD
KTVC 031355Z 0314/0412 07005KT P6SM VCSH BKN035 BKN120
      TEMPO 0314/0316 3SM -SHRA BR BKN007
     FM040000 VRB03KT P6SM VCSH SCT040 BKN080=



000
FTUS43 KAPX 031355 AAA
TAFTVC
TAF AMD
KTVC 031355Z 0314/0412 07005KT P6SM VCSH BKN035 BKN120
      TEMPO 0314/0316 3SM -SHRA BR BKN007
     FM040000 VRB03KT P6SM VCSH SCT040 BKN080=



000
FTUS43 KAPX 031120
TAFAPN
TAF
KAPN 031120Z 0312/0412 00000KT 6SM BR SCT050 OVC120
     FM031400 VRB04KT P6SM VCSH SCT050 OVC120
     FM031600 VRB05KT 5SM -SHRA OVC035
     FM031900 10007KT P6SM VCTS BKN040CB BKN080
     FM040100 00000KT 5SM BR SCT040=



000
FTUS43 KAPX 031120
TAFPLN
TAF
KPLN 031120Z 0312/0412 VRB05KT P6SM -RA VCTS SCT018 BKN040CB OVC060
      TEMPO 0312/0315 2SM TSRA BR BKN025 OVC040CB
     FM031500 10007KT 5SM -SHRA BKN040 BKN080
     FM040100 00000KT 6SM BR VCSH SCT040 BKN120
     FM040400 00000KT 3SM BR BKN120=



000
FTUS43 KAPX 031120
TAFTVC
TAF
KTVC 031120Z 0312/0412 VRB05KT P6SM VCTS SCT018 BKN040CB OVC070
      TEMPO 0312/0314 2SM TSRA BR BKN018 OVC040CB
     FM031400 07005KT P6SM VCSH BKN035 BKN120
     FM040000 VRB03KT P6SM VCSH SCT040 BKN080=



000
FTUS43 KAPX 031120
TAFPLN
TAF
KPLN 031120Z 0312/0412 VRB05KT P6SM -RA VCTS SCT018 BKN040CB OVC060
      TEMPO 0312/0315 2SM TSRA BR BKN025 OVC040CB
     FM031500 10007KT 5SM -SHRA BKN040 BKN080
     FM040100 00000KT 6SM BR VCSH SCT040 BKN120
     FM040400 00000KT 3SM BR BKN120=



000
FTUS43 KAPX 031120
TAFAPN
TAF
KAPN 031120Z 0312/0412 00000KT 6SM BR SCT050 OVC120
     FM031400 VRB04KT P6SM VCSH SCT050 OVC120
     FM031600 VRB05KT 5SM -SHRA OVC035
     FM031900 10007KT P6SM VCTS BKN040CB BKN080
     FM040100 00000KT 5SM BR SCT040=



000
FTUS43 KAPX 031120
TAFTVC
TAF
KTVC 031120Z 0312/0412 VRB05KT P6SM VCTS SCT018 BKN040CB OVC070
      TEMPO 0312/0314 2SM TSRA BR BKN018 OVC040CB
     FM031400 07005KT P6SM VCSH BKN035 BKN120
     FM040000 VRB03KT P6SM VCSH SCT040 BKN080=



000
FTUS43 KAPX 031039 AAB
TAFTVC
TAF AMD
KTVC 031039Z 0311/0406 VRB05KT P6SM VCTS SCT050CB OVC070
      TEMPO 0311/0314 2SM TSRA BR BKN018 OVC040CB
     FM031400 07005KT P6SM VCSH BKN035 BKN120
     FM040000 VRB03KT P6SM VCSH SCT040 BKN080=



000
FTUS43 KAPX 031034 AAB
TAFPLN
TAF AMD
KPLN 031034Z 0311/0406 29010KT P6SM -RA VCTS BKN040CB OVC045
      TEMPO 0311/0315 2SM TSRA BR BKN025 OVC040CB
     FM031500 10007KT 5SM -SHRA BKN040 BKN080
     FM040100 00000KT 6SM BR VCSH SCT040 BKN120
     FM040400 00000KT 3SM BR BKN120=



000
FTUS43 KAPX 031024 AAB
TAFAPN
TAF AMD
KAPN 031024Z 0310/0406 00000KT 6SM BR FEW110
     FM031400 VRB04KT P6SM VCSH SCT050 BKN120
     FM031600 VRB05KT 5SM -SHRA OVC035
     FM031900 10007KT P6SM VCTS BKN040CB BKN080
     FM040100 00000KT 5SM BR SCT040=



000
FTUS43 KAPX 030822 AAA
TAFAPN
TAF AMD
KAPN 030822Z 0308/0406 00000KT P6SM SCT040
      TEMPO 0308/0312 1SM BR
     FM031400 10005KT P6SM SCT080 BKN120
     FM031900 10007KT P6SM SHRA OVC035
     FM040100 00000KT 5SM BR SCT040=



000
FTUS43 KAPX 030822 AAA
TAFAPN
TAF AMD
KAPN 030822Z 0308/0406 00000KT P6SM SCT040
      TEMPO 0308/0312 1SM BR
     FM031400 10005KT P6SM SCT080 BKN120
     FM031900 10007KT P6SM SHRA OVC035
     FM040100 00000KT 5SM BR SCT040=



000
FTUS43 KAPX 030821 AAA
TAFPLN
TAF AMD
KPLN 030821Z 0308/0406 12003KT P6SM VCTS SCT040CB BKN150
      TEMPO 0309/0313 3SM TSRA BR SCT025 OVC040CB
     FM031300 10007KT 5SM -SHRA OVC040
     FM032300 09005KT P6SM BKN040
     FM040200 00000KT 3SM BR SCT040=



000
FTUS43 KAPX 030821 AAA
TAFPLN
TAF AMD
KPLN 030821Z 0308/0406 12003KT P6SM VCTS SCT040CB BKN150
      TEMPO 0309/0313 3SM TSRA BR SCT025 OVC040CB
     FM031300 10007KT 5SM -SHRA OVC040
     FM032300 09005KT P6SM BKN040
     FM040200 00000KT 3SM BR SCT040=



000
FTUS43 KAPX 030819 AAA
TAFTVC
TAF AMD
KTVC 030819Z 0308/0406 12003KT P6SM VCTS SCT050CB BKN100
      TEMPO 0309/0313 3SM TSRA BR SCT020 OVC040CB
     FM031500 07005KT P6SM VCSH BKN035 BKN120
     FM040000 VRB03KT P6SM BKN040=



000
FTUS43 KAPX 030819 AAA
TAFTVC
TAF AMD
KTVC 030819Z 0308/0406 12003KT P6SM VCTS SCT050CB BKN100
      TEMPO 0309/0313 3SM TSRA BR SCT020 OVC040CB
     FM031500 07005KT P6SM VCSH BKN035 BKN120
     FM040000 VRB03KT P6SM BKN040=



000
FTUS43 KAPX 030522 CCA
TAFPLN
TAF COR
KPLN 030522Z 0306/0406 12003KT P6SM SCT080 BKN150
      TEMPO 0306/0310 4SM BR
     FM031000 00000KT 2SM -TSRA BR SCT004 BKN050CB OVC080
     FM031600 10007KT P6SM VCSH OVC040
     FM032300 09005KT P6SM BKN040
     FM040200 00000KT 3SM BR SCT040=



000
FTUS43 KAPX 030522 CCA
TAFPLN
TAF COR
KPLN 030522Z 0306/0406 12003KT P6SM SCT080 BKN150
      TEMPO 0306/0310 4SM BR
     FM031000 00000KT 2SM -TSRA BR SCT004 BKN050CB OVC080
     FM031600 10007KT P6SM VCSH OVC040
     FM032300 09005KT P6SM BKN040
     FM040200 00000KT 3SM BR SCT040=



000
FTUS43 KAPX 030520
TAFAPN
TAF
KAPN 030520Z 0306/0406 VRB03KT P6SM FEW120
      TEMPO 0306/0308 2SM BR
     FM030800 VRB03KT 2SM BR SCT120
      TEMPO 0308/0312 3/4SM BR SCT003
     FM031400 10005KT P6SM SCT080 BKN120
     FM031900 10007KT P6SM SHRA OVC035
     FM040100 00000KT 5SM BR SCT040=



000
FTUS43 KAPX 030520
TAFTVC
TAF
KTVC 030520Z 0306/0406 12003KT P6SM SCT080 BKN150
      TEMPO 0306/0310 4SM BR
     FM031000 00000KT 2SM -TSRA BR SCT004 BKN050CB OVC080
     FM031500 07005KT P6SM VCSH BKN035 BKN120
     FM040000 VRB03KT P6SM BKN040=



000
FTUS43 KAPX 030520
TAFAPN
TAF
KAPN 030520Z 0306/0406 VRB03KT P6SM FEW120
      TEMPO 0306/0308 2SM BR
     FM030800 VRB03KT 2SM BR SCT120
      TEMPO 0308/0312 3/4SM BR SCT003
     FM031400 10005KT P6SM SCT080 BKN120
     FM031900 10007KT P6SM SHRA OVC035
     FM040100 00000KT 5SM BR SCT040=



000
FTUS43 KAPX 030520
TAFTVC
TAF
KTVC 030520Z 0306/0406 12003KT P6SM SCT080 BKN150
      TEMPO 0306/0310 4SM BR
     FM031000 00000KT 2SM -TSRA BR SCT004 BKN050CB OVC080
     FM031500 07005KT P6SM VCSH BKN035 BKN120
     FM040000 VRB03KT P6SM BKN040=



000
FTUS43 KAPX 030520
TAFPLN
TAF
KPLN 030520Z 0306/0406 00000KT 2SM BR BKN200
     FM030900 00000KT 4SM SHRA BR SCT004 OVC100
     FM031600 10007KT P6SM VCSH OVC040
     FM032300 09005KT P6SM BKN040
     FM040200 00000KT 3SM BR SCT040=



000
FTUS43 KAPX 030520
TAFPLN
TAF
KPLN 030520Z 0306/0406 00000KT 2SM BR BKN200
     FM030900 00000KT 4SM SHRA BR SCT004 OVC100
     FM031600 10007KT P6SM VCSH OVC040
     FM032300 09005KT P6SM BKN040
     FM040200 00000KT 3SM BR SCT040=



000
FTUS43 KAPX 030517 AAA
TAFTVC
TAF AMD
KTVC 030517Z 0305/0324 00000KT P6SM SCT090 BKN120
      TEMPO 0306/0310 4SM BR
     FM031000 00000KT 5SM SHRA BR BKN040 OVC120
     FM031500 11005KT P6SM SHRA BKN035 BKN120=



000
FTUS43 KAPX 030517 AAA
TAFTVC
TAF AMD
KTVC 030517Z 0305/0324 00000KT P6SM SCT090 BKN120
      TEMPO 0306/0310 4SM BR
     FM031000 00000KT 5SM SHRA BR BKN040 OVC120
     FM031500 11005KT P6SM SHRA BKN035 BKN120=



000
FTUS43 KAPX 030515 AAA
TAFPLN
TAF AMD
KPLN 030515Z 0305/0324 12003KT P6SM SCT080 BKN150
      TEMPO 0306/0310 4SM BR
     FM031000 00000KT 2SM -TSRA BR SCT004 BKN050CB OVC080
     FM031400 10007KT 5SM SHRA OVC060
     FM032300 09005KT P6SM OVC100=



000
FTUS43 KAPX 030515 AAA
TAFPLN
TAF AMD
KPLN 030515Z 0305/0324 12003KT P6SM SCT080 BKN150
      TEMPO 0306/0310 4SM BR
     FM031000 00000KT 2SM -TSRA BR SCT004 BKN050CB OVC080
     FM031400 10007KT 5SM SHRA OVC060
     FM032300 09005KT P6SM OVC100=



000
FTUS43 KAPX 030513 AAA
TAFAPN
TAF AMD
KAPN 030513Z 0305/0324 VRB03KT P6SM FEW120
      TEMPO 0306/0308 2SM BR
     FM030800 VRB03KT 2SM BR SCT120
      TEMPO 0308/0312 3/4SM BR SCT003
     FM031400 10005KT P6SM SCT070 BKN150
     FM031900 10007KT P6SM SHRA OVC035=



000
FTUS43 KAPX 030513 AAA
TAFAPN
TAF AMD
KAPN 030513Z 0305/0324 VRB03KT P6SM FEW120
      TEMPO 0306/0308 2SM BR
     FM030800 VRB03KT 2SM BR SCT120
      TEMPO 0308/0312 3/4SM BR SCT003
     FM031400 10005KT P6SM SCT070 BKN150
     FM031900 10007KT P6SM SHRA OVC035=



000
FTUS43 KAPX 022340
TAFPLN
TAF
KPLN 022340Z 0300/0324 VRB03KT P6SM BKN200
     FM030200 00000KT 2SM BR BKN200
     FM030900 00000KT 1SM SHRA BR SCT004 OVC080
     FM031400 10007KT 5SM SHRA OVC060
     FM032300 09005KT P6SM OVC100=



000
FTUS43 KAPX 022340
TAFTVC
TAF
KTVC 022340Z 0300/0324 00000KT P6SM SCT015 OVC100
     FM030500 00000KT 3SM BR BKN120
     FM030700 00000KT 5SM SHRA BR BKN040 OVC120
     FM031500 11005KT P6SM SHRA BKN035 BKN120=



000
FTUS43 KAPX 022340
TAFAPN
TAF
KAPN 022340Z 0300/0324 VRB03KT P6SM -RA VCTS BKN035CB BKN100
     FM030100 VRB03KT 3SM BR BKN120
     FM030500 00000KT 3/4SM BR SCT003 BKN120
     FM031400 10005KT P6SM SCT070 BKN150
     FM031900 10007KT P6SM SHRA OVC035=



000
FTUS43 KAPX 022340
TAFPLN
TAF
KPLN 022340Z 0300/0324 VRB03KT P6SM BKN200
     FM030200 00000KT 2SM BR BKN200
     FM030900 00000KT 1SM SHRA BR SCT004 OVC080
     FM031400 10007KT 5SM SHRA OVC060
     FM032300 09005KT P6SM OVC100=



000
FTUS43 KAPX 022340
TAFTVC
TAF
KTVC 022340Z 0300/0324 00000KT P6SM SCT015 OVC100
     FM030500 00000KT 3SM BR BKN120
     FM030700 00000KT 5SM SHRA BR BKN040 OVC120
     FM031500 11005KT P6SM SHRA BKN035 BKN120=



000
FTUS43 KAPX 022340
TAFAPN
TAF
KAPN 022340Z 0300/0324 VRB03KT P6SM -RA VCTS BKN035CB BKN100
     FM030100 VRB03KT 3SM BR BKN120
     FM030500 00000KT 3/4SM BR SCT003 BKN120
     FM031400 10005KT P6SM SCT070 BKN150
     FM031900 10007KT P6SM SHRA OVC035=



000
FTUS43 KAPX 022222 AAB
TAFAPN
TAF AMD
KAPN 022222Z 0222/0318 VRB03KT 5SM -RA BR VCTS BKN035CB BKN100
      TEMPO 0222/0224 3SM -RA BR BKN009
     FM030100 VRB03KT 3SM BR BKN120
     FM030500 00000KT 3/4SM BR BKN120
     FM031300 06006KT P6SM BKN120=



000
FTUS43 KAPX 021826 AAA
TAFAPN
TAF AMD
KAPN 021826Z 0218/0318 VRB03KT P6SM VCTS SCT035CB BKN040
     FM030100 VRB03KT P6SM BKN120
     FM030400 00000KT 5SM BR BKN120
     FM031300 06006KT P6SM BKN120=



000
FTUS43 KAPX 021826 AAA
TAFAPN
TAF AMD
KAPN 021826Z 0218/0318 VRB03KT P6SM VCTS SCT035CB BKN040
     FM030100 VRB03KT P6SM BKN120
     FM030400 00000KT 5SM BR BKN120
     FM031300 06006KT P6SM BKN120=



000
FTUS43 KAPX 021736 AAA
TAFTVC
TAF AMD
KTVC 021736Z 0218/0318 35007KT P6SM VCTS BKN035CB
     FM021900 35007KT P6SM SCT040
     FM030100 VRB03KT P6SM BKN120
     FM030800 00000KT P6SM VCSH SCT040 BKN120
     FM031300 12004KT P6SM VCSH SCT040 BKN120=



000
FTUS43 KAPX 021720
TAFAPN
TAF
KAPN 021720Z 0218/0318 VRB03KT P6SM SCT040
     FM021930 10007KT P6SM VCTS BKN040CB
     FM030100 VRB03KT P6SM BKN120
     FM030400 00000KT 5SM BR BKN120
     FM031300 06006KT P6SM BKN120=



000
FTUS43 KAPX 021720
TAFTVC
TAF
KTVC 021720Z 0218/0318 35007KT P6SM BKN035
     FM030100 VRB03KT P6SM BKN120
     FM030800 00000KT P6SM VCSH SCT040 BKN120
     FM031300 12004KT P6SM VCSH SCT040 BKN120=



000
FTUS43 KAPX 021720
TAFPLN
TAF
KPLN 021720Z 0218/0318 31007KT P6SM BKN040
     FM022000 31007KT P6SM SCT040 SCT200
     FM030000 VRB03KT P6SM BKN120
     FM030300 00000KT 2SM BR BKN120
     FM031000 00000KT 1/2SM FG VV014
     FM031300 08005KT P6SM BKN120=



000
FTUS43 KAPX 021720
TAFTVC
TAF
KTVC 021720Z 0218/0318 35007KT P6SM BKN035
     FM030100 VRB03KT P6SM BKN120
     FM030800 00000KT P6SM VCSH SCT040 BKN120
     FM031300 12004KT P6SM VCSH SCT040 BKN120=



000
FTUS43 KAPX 021720
TAFAPN
TAF
KAPN 021720Z 0218/0318 VRB03KT P6SM SCT040
     FM021930 10007KT P6SM VCTS BKN040CB
     FM030100 VRB03KT P6SM BKN120
     FM030400 00000KT 5SM BR BKN120
     FM031300 06006KT P6SM BKN120=



000
FTUS43 KAPX 021720
TAFPLN
TAF
KPLN 021720Z 0218/0318 31007KT P6SM BKN040
     FM022000 31007KT P6SM SCT040 SCT200
     FM030000 VRB03KT P6SM BKN120
     FM030300 00000KT 2SM BR BKN120
     FM031000 00000KT 1/2SM FG VV014
     FM031300 08005KT P6SM BKN120=



000
FTUS43 KAPX 021214 AAA
TAFPLN
TAF AMD
KPLN 021214Z 0212/0312 00000KT 2SM BR SCT013
     FM021230 00000KT 4SM BR SCT040
     FM021330 32004KT P6SM SCT015
     FM021800 31007KT P6SM SCT040 SCT200
     FM030000 VRB03KT P6SM BKN120
     FM030300 00000KT 2SM BR BKN120=



000
FTUS43 KAPX 021214 AAA
TAFPLN
TAF AMD
KPLN 021214Z 0212/0312 00000KT 2SM BR SCT013
     FM021230 00000KT 4SM BR SCT040
     FM021330 32004KT P6SM SCT015
     FM021800 31007KT P6SM SCT040 SCT200
     FM030000 VRB03KT P6SM BKN120
     FM030300 00000KT 2SM BR BKN120=



000
FTUS43 KAPX 021120
TAFPLN
TAF
KPLN 021120Z 0212/0312 00000KT 1/4SM FG VV006
     FM021230 00000KT 4SM BR SCT040
     FM021330 32004KT P6SM SCT015
     FM021800 31007KT P6SM SCT040 SCT200
     FM030000 VRB03KT P6SM BKN120
     FM030300 00000KT 2SM BR BKN120=



000
FTUS43 KAPX 021120
TAFTVC
TAF
KTVC 021120Z 0212/0312 VRB04KT P6SM BKN070
     FM021400 VRB03KT P6SM SCT035
     FM021700 35007KT P6SM BKN040
     FM030100 VRB03KT P6SM BKN120=



000
FTUS43 KAPX 021120
TAFAPN
TAF
KAPN 021120Z 0212/0312 00000KT 3SM BR SKC
      TEMPO 0212/0213 3/4SM BR
     FM021300 VRB03KT P6SM SCT040
     FM021900 10007KT P6SM VCTS BKN040CB
     FM030100 VRB03KT P6SM BKN120
     FM030400 VRB03KT 5SM BR BKN120=



000
FTUS43 KAPX 021120
TAFTVC
TAF
KTVC 021120Z 0212/0312 VRB04KT P6SM BKN070
     FM021400 VRB03KT P6SM SCT035
     FM021700 35007KT P6SM BKN040
     FM030100 VRB03KT P6SM BKN120=



000
FTUS43 KAPX 021120
TAFPLN
TAF
KPLN 021120Z 0212/0312 00000KT 1/4SM FG VV006
     FM021230 00000KT 4SM BR SCT040
     FM021330 32004KT P6SM SCT015
     FM021800 31007KT P6SM SCT040 SCT200
     FM030000 VRB03KT P6SM BKN120
     FM030300 00000KT 2SM BR BKN120=



000
FTUS43 KAPX 021120
TAFAPN
TAF
KAPN 021120Z 0212/0312 00000KT 3SM BR SKC
      TEMPO 0212/0213 3/4SM BR
     FM021300 VRB03KT P6SM SCT040
     FM021900 10007KT P6SM VCTS BKN040CB
     FM030100 VRB03KT P6SM BKN120
     FM030400 VRB03KT 5SM BR BKN120=



000
FTUS43 KAPX 020943 AAB
TAFAPN
TAF AMD
KAPN 020943Z 0210/0306 00000KT 2SM BR SKC
      TEMPO 0210/0212 1/2SM FG VV002
     FM021330 VRB03KT P6SM SCT025
     FM021900 10007KT P6SM VCTS BKN040CB
     FM030100 VRB03KT P6SM BKN120
     FM030400 VRB03KT 5SM BR BKN120=



000
FTUS43 KAPX 020942 AAB
TAFPLN
TAF AMD
KPLN 020942Z 0210/0306 00000KT 5SM BR SKC
      TEMPO 0210/0212 3/4SM BR VV003
     FM021330 32004KT P6SM SCT015
     FM021800 31007KT P6SM SCT040 SCT200
     FM030000 VRB03KT P6SM BKN120
     FM030300 00000KT 2SM BR BKN120=



000
FTUS43 KAPX 020745 AAA
TAFAPN
TAF AMD
KAPN 020745Z 0208/0306 00000KT 6SM BR SCT200
     FM020900 00000KT 3SM BR SCT200
     FM021000 00000KT 3/4SM BR SCT003 SCT120
     FM021330 VRB03KT P6SM SCT025
     FM021900 10007KT P6SM VCTS BKN040CB
     FM030100 VRB03KT P6SM BKN120
     FM030400 VRB03KT 5SM BR BKN120=



000
FTUS43 KAPX 020744 AAA
TAFPLN
TAF AMD
KPLN 020744Z 0208/0306 00000KT 4SM BR SCT120
     FM020900 00000KT 1/2SM FG SCT002
     FM021330 32004KT P6SM SCT015
     FM021800 31007KT P6SM SCT040 SCT200
     FM030000 VRB03KT P6SM BKN120
     FM030300 00000KT 2SM BR BKN120=



000
FTUS43 KAPX 020529
TAFTVC
TAF
KTVC 020529Z 0206/0306 00000KT P6SM FEW250
     FM020900 00000KT 3SM BR SCT120
     FM021330 VRB03KT P6SM SCT020
     FM021700 35007KT P6SM BKN040
     FM030100 VRB03KT P6SM BKN120=



000
FTUS43 KAPX 020529
TAFPLN
TAF
KPLN 020529Z 0206/0306 00000KT 3SM BR SCT120
     FM020730 00000KT 1/2SM FG SCT002
     FM021330 32004KT P6SM SCT015
     FM021800 31007KT P6SM SCT040 SCT200
     FM030000 VRB03KT P6SM BKN120
     FM030300 00000KT 2SM BR BKN120=



000
FTUS43 KAPX 020529
TAFAPN
TAF
KAPN 020529Z 0206/0306 00000KT 6SM BR SCT200
     FM020700 00000KT 3SM BR SCT200
     FM020900 00000KT 3/4SM BR SCT003 SCT120
     FM021330 VRB03KT P6SM SCT025
     FM021900 10007KT P6SM VCTS BKN040CB
     FM030100 VRB03KT P6SM BKN120
     FM030400 VRB03KT 5SM BR BKN120=



000
FTUS43 KAPX 020529
TAFTVC
TAF
KTVC 020529Z 0206/0306 00000KT P6SM FEW250
     FM020900 00000KT 3SM BR SCT120
     FM021330 VRB03KT P6SM SCT020
     FM021700 35007KT P6SM BKN040
     FM030100 VRB03KT P6SM BKN120=



000
FTUS43 KAPX 020529
TAFPLN
TAF
KPLN 020529Z 0206/0306 00000KT 3SM BR SCT120
     FM020730 00000KT 1/2SM FG SCT002
     FM021330 32004KT P6SM SCT015
     FM021800 31007KT P6SM SCT040 SCT200
     FM030000 VRB03KT P6SM BKN120
     FM030300 00000KT 2SM BR BKN120=



000
FTUS43 KAPX 020529
TAFAPN
TAF
KAPN 020529Z 0206/0306 00000KT 6SM BR SCT200
     FM020700 00000KT 3SM BR SCT200
     FM020900 00000KT 3/4SM BR SCT003 SCT120
     FM021330 VRB03KT P6SM SCT025
     FM021900 10007KT P6SM VCTS BKN040CB
     FM030100 VRB03KT P6SM BKN120
     FM030400 VRB03KT 5SM BR BKN120=



000
FTUS43 KAPX 020209 AAA
TAFAPN
TAF AMD
KAPN 020209Z 0202/0224 VRB03KT 5SM BR SKC
     FM020500 00000KT 3SM BR SKC
     FM020900 00000KT 1/2SM FG SCT003 SCT120
     FM021330 VRB03KT P6SM SCT025
     FM021900 10007KT P6SM VCSH BKN040=



000
FTUS43 KAPX 012334
TAFPLN
TAF
KPLN 012334Z 0200/0224 26006KT P6SM SCT050
     FM020100 00000KT P6SM SCT050
     FM020400 00000KT 3SM BR SCT120
     FM020700 00000KT 1/2SM FG SCT002
     FM021330 32004KT P6SM SCT015
     FM021800 31007KT P6SM SCT040=



000
FTUS43 KAPX 012334
TAFAPN
TAF
KAPN 012334Z 0200/0224 10003KT P6SM FEW050
     FM020500 00000KT 3SM BR SKC
     FM020900 00000KT 3/4SM BR SCT003 SCT120
     FM021330 VRB03KT P6SM SCT025
     FM021900 10007KT P6SM VCSH BKN040=



000
FTUS43 KAPX 012334
TAFTVC
TAF
KTVC 012334Z 0200/0224 22006KT P6SM FEW050 SCT250
     FM020100 00000KT P6SM SCT250
     FM020900 00000KT 2SM BR SCT120
     FM021330 VRB03KT P6SM SCT020
     FM021700 35007KT P6SM SCT040=



000
FTUS43 KAPX 011731
TAFAPN
TAF
KAPN 011731Z 0118/0218 22008KT P6SM FEW040
     FM012000 13008KT P6SM FEW040
     FM020000 00000KT 6SM HZ FEW050
     FM020400 00000KT 3SM BR SKC
     FM020700 00000KT 3/4SM BR SCT003
     FM021330 VRB03KT 6SM HZ SCT025=



000
FTUS43 KAPX 011731
TAFPLN
TAF
KPLN 011731Z 0118/0218 23007KT P6SM FEW040
     FM020100 00000KT 6SM HZ FEW050
     FM020400 00000KT 3SM BR SCT040
     FM020800 00000KT 1/2SM FG SCT002
     FM021330 VRB03KT 6SM HZ SCT025=



000
FTUS43 KAPX 011731
TAFTVC
TAF
KTVC 011731Z 0118/0218 23007KT P6SM SCT040
     FM020100 00000KT 6SM HZ FEW050
     FM020500 00000KT 4SM BR FEW040
     FM020900 00000KT 1 1/2SM BR FEW040
     FM021330 VRB03KT 6SM HZ FEW025=



000
FTUS43 KAPX 011120
TAFAPN
TAF
KAPN 011120Z 0112/0212 23006KT P6SM SKC
     FM012100 14007KT P6SM SCT035
     FM020100 00000KT 4SM BR SKC=



000
FTUS43 KAPX 011120
TAFTVC
TAF
KTVC 011120Z 0112/0212 23005KT P6SM SKC
     FM020100 00000KT P6SM SKC=



000
FTUS43 KAPX 011120
TAFPLN
TAF
KPLN 011120Z 0112/0212 24007KT P6SM SKC
     FM020100 00000KT 3SM BR SKC=



000
FTUS43 KAPX 011120
TAFPLN
TAF
KPLN 011120Z 0112/0212 24007KT P6SM SKC
     FM020100 00000KT 3SM BR SKC=



000
FTUS43 KAPX 011120
TAFAPN
TAF
KAPN 011120Z 0112/0212 23006KT P6SM SKC
     FM012100 14007KT P6SM SCT035
     FM020100 00000KT 4SM BR SKC=



000
FTUS43 KAPX 011120
TAFTVC
TAF
KTVC 011120Z 0112/0212 23005KT P6SM SKC
     FM020100 00000KT P6SM SKC=



    US Dept of Commerce
    National Oceanic and Atmospheric Administration
    National Weather Service
    1325 East West Highway
    Silver Spring, MD 20910
    Page Author: NWS Internet Services Team
Disclaimer
Information Quality
Credits
Glossary
Privacy Policy
Freedom of Information Act (FOIA)
About Us
Career Opportunities